Time;durP1;ratioP1;P1;durP2;ratioP2;P2;SDS_P1;SDS_P2;PMS_P1;PMS_P2;Temp;Humidity;BMP_temperature;BMP_pressure;BME280_temperature;BME280_humidity;BME280_pressure;Samples;Min_cycle;Max_cycle;Signal;HPM_P1;HPM_P2
2022/06/30 00:01:27;;;;;;;6.37;4.23;;;18.10;99.90;;;;;;4973444;28;20216;-76
2022/06/30 00:03:53;;;;;;;3.93;3.63;;;18.10;99.90;;;;;;4972759;28;20235;-76
2022/06/30 00:06:18;;;;;;;6.13;4.10;;;18.10;99.90;;;;;;4972840;28;20223;-76
2022/06/30 00:08:44;;;;;;;5.73;4.53;;;18.10;99.90;;;;;;4972506;28;20184;-76
2022/06/30 00:11:10;;;;;;;4.90;4.57;;;18.10;99.90;;;;;;4976082;28;20217;-76
2022/06/30 00:13:37;;;;;;;5.27;4.70;;;18.00;99.90;;;;;;4976279;28;20180;-76
2022/06/30 00:16:04;;;;;;;5.87;4.03;;;18.00;99.90;;;;;;4976617;28;20231;-76
2022/06/30 00:18:30;;;;;;;7.03;4.70;;;18.00;99.90;;;;;;4976152;28;20411;-76
2022/06/30 00:20:55;;;;;;;11.70;4.80;;;18.00;99.90;;;;;;4976125;28;20462;-76
2022/06/30 00:23:21;;;;;;;4.73;4.23;;;18.00;99.90;;;;;;4976555;28;20411;-76
2022/06/30 00:25:47;;;;;;;7.53;4.70;;;17.90;99.90;;;;;;4976099;28;20177;-76
2022/06/30 00:28:12;;;;;;;8.20;4.40;;;17.90;99.90;;;;;;4976016;28;20176;-76
2022/06/30 00:30:41;;;;;;;5.83;4.67;;;17.80;99.90;;;;;;4975886;28;20183;-75
2022/06/30 00:33:06;;;;;;;5.00;4.20;;;17.80;99.90;;;;;;4974703;28;20577;-76
2022/06/30 00:35:32;;;;;;;5.37;4.87;;;17.80;99.90;;;;;;4976027;28;20466;-76
2022/06/30 00:37:57;;;;;;;6.17;5.57;;;17.70;99.90;;;;;;4975920;28;20698;-76
2022/06/30 00:40:23;;;;;;;4.90;4.40;;;17.70;99.90;;;;;;4975738;28;20196;-74
2022/06/30 00:42:48;;;;;;;5.07;4.70;;;17.70;99.90;;;;;;4975612;28;20196;-76
2022/06/30 00:45:14;;;;;;;8.60;4.50;;;17.70;99.90;;;;;;4975991;28;20172;-75
2022/06/30 00:47:40;;;;;;;5.07;4.50;;;17.70;99.90;;;;;;4974643;28;20610;-76
2022/06/30 00:50:07;;;;;;;5.17;4.70;;;17.70;99.90;;;;;;4975622;28;20234;-76
2022/06/30 00:52:35;;;;;;;5.23;4.83;;;17.60;99.90;;;;;;4975232;28;20439;-76
2022/06/30 00:55:03;;;;;;;5.53;4.90;;;17.60;99.90;;;;;;4975650;28;20963;-76
2022/06/30 00:57:30;;;;;;;6.73;5.10;;;17.50;99.90;;;;;;4975923;28;20423;-76
2022/06/30 00:59:57;;;;;;;6.90;4.90;;;17.50;99.90;;;;;;4975022;28;20792;-75
2022/06/30 02:31:21;;;;;;;6.83;6.23;;;16.50;99.90;;;;;;5734082;23;20473;-73
2022/06/30 02:33:46;;;;;;;9.73;6.10;;;16.50;99.90;;;;;;4971934;28;20415;-74
2022/06/30 02:36:12;;;;;;;8.23;6.47;;;16.50;99.90;;;;;;4974118;28;20215;-75
2022/06/30 02:38:37;;;;;;;7.23;6.20;;;16.50;99.90;;;;;;4974644;28;20696;-74
2022/06/30 02:41:03;;;;;;;8.37;6.80;;;16.40;99.90;;;;;;4974580;28;20211;-76
2022/06/30 02:43:28;;;;;;;6.70;6.10;;;16.40;99.90;;;;;;4974508;28;20184;-77
2022/06/30 02:45:54;;;;;;;15.03;6.97;;;16.40;99.90;;;;;;4973396;28;20551;-76
2022/06/30 02:48:19;;;;;;;8.33;6.37;;;16.40;99.90;;;;;;4974583;28;20180;-76
2022/06/30 02:50:45;;;;;;;8.80;6.67;;;16.40;99.90;;;;;;4972861;28;20559;-77
2022/06/30 02:53:11;;;;;;;6.97;5.60;;;16.30;99.90;;;;;;4974128;28;20188;-76
2022/06/30 02:55:37;;;;;;;7.03;6.40;;;16.30;99.90;;;;;;4974287;28;20188;-76
2022/06/30 02:58:03;;;;;;;10.43;5.90;;;16.30;99.90;;;;;;4974242;28;20458;-76
2022/06/30 03:00:29;;;;;;;6.43;5.87;;;16.30;99.90;;;;;;4973972;28;20483;-75
2022/06/30 03:02:56;;;;;;;6.00;5.50;;;16.20;99.90;;;;;;4974408;28;20613;-75
2022/06/30 03:05:21;;;;;;;7.50;6.50;;;16.20;99.90;;;;;;4974188;28;20408;-75
2022/06/30 03:07:47;;;;;;;10.07;5.90;;;16.20;99.90;;;;;;4974006;28;20465;-76
2022/06/30 03:10:12;;;;;;;12.90;6.13;;;16.20;99.90;;;;;;4974255;28;20187;-76
2022/06/30 03:12:39;;;;;;;7.00;6.40;;;16.20;99.90;;;;;;4973770;28;20207;-76
2022/06/30 03:15:06;;;;;;;7.27;6.50;;;16.10;99.90;;;;;;4973711;28;20215;-74
2022/06/30 03:17:31;;;;;;;6.70;6.10;;;16.10;99.90;;;;;;4973806;28;20423;-74
2022/06/30 03:19:57;;;;;;;7.00;5.97;;;16.10;99.90;;;;;;4973741;28;20911;-76
2022/06/30 03:22:23;;;;;;;6.90;6.30;;;16.10;99.90;;;;;;4973519;28;20443;-77
2022/06/30 03:24:48;;;;;;;5.53;5.13;;;16.10;99.90;;;;;;4973731;28;20184;-75
2022/06/30 03:27:14;;;;;;;8.10;6.53;;;16.10;99.90;;;;;;4973914;28;20184;-74
2022/06/30 03:29:40;;;;;;;6.70;5.87;;;16.00;99.90;;;;;;4973758;28;20243;-77
2022/06/30 03:32:05;;;;;;;6.80;6.10;;;16.10;99.90;;;;;;4973742;28;20502;-75
2022/06/30 03:34:31;;;;;;;7.67;6.30;;;16.00;99.90;;;;;;4973455;28;20184;-76
2022/06/30 03:36:56;;;;;;;7.13;6.40;;;16.10;99.90;;;;;;4973560;28;20180;-77
2022/06/30 03:39:22;;;;;;;6.77;6.17;;;16.10;99.90;;;;;;4973553;28;20304;-76
2022/06/30 03:41:48;;;;;;;10.07;6.27;;;16.00;99.90;;;;;;4973414;28;20629;-74
2022/06/30 03:44:13;;;;;;;6.50;5.90;;;16.00;99.90;;;;;;4974785;28;20621;-75
2022/06/30 03:46:39;;;;;;;6.67;5.87;;;16.00;99.90;;;;;;4979791;28;20262;-78
2022/06/30 03:49:04;;;;;;;8.37;6.37;;;16.10;99.90;;;;;;4980021;28;20211;-77
2022/06/30 03:51:30;;;;;;;11.20;6.07;;;16.10;99.90;;;;;;4978563;28;20290;-75
2022/06/30 03:53:56;;;;;;;11.00;6.40;;;16.10;99.90;;;;;;4979600;28;20724;-75
2022/06/30 03:56:22;;;;;;;9.03;5.53;;;16.10;99.90;;;;;;4980021;28;20575;-77
2022/06/30 03:58:47;;;;;;;8.20;6.67;;;16.10;99.90;;;;;;4979839;28;20425;-75
2022/06/30 04:01:13;;;;;;;6.37;5.87;;;16.10;99.90;;;;;;4979380;28;21033;-76
2022/06/30 04:03:39;;;;;;;6.17;5.67;;;16.20;99.90;;;;;;4980275;28;20183;-77
2022/06/30 04:06:04;;;;;;;6.93;6.33;;;16.20;99.90;;;;;;4981004;28;20180;-76
2022/06/30 04:08:30;;;;;;;9.80;7.70;;;16.20;99.90;;;;;;4980474;28;20644;-77
2022/06/30 04:10:55;;;;;;;7.80;6.13;;;16.30;99.90;;;;;;4980202;28;20207;-76
2022/06/30 04:13:21;;;;;;;7.30;6.40;;;16.30;99.90;;;;;;4979879;28;20185;-76
2022/06/30 04:15:46;;;;;;;6.47;5.87;;;16.40;99.90;;;;;;4979989;28;20176;-75
2022/06/30 04:18:12;;;;;;;6.60;6.10;;;16.40;99.90;;;;;;4979721;28;20662;-75
2022/06/30 04:20:38;;;;;;;6.30;5.70;;;16.50;99.90;;;;;;4984530;28;20265;-75
2022/06/30 04:23:03;;;;;;;11.73;6.63;;;16.50;99.90;;;;;;4988313;28;20191;-76
2022/06/30 04:25:29;;;;;;;6.80;5.60;;;16.60;99.90;;;;;;4980222;28;20294;-76
2022/06/30 04:27:57;;;;;;;10.60;6.90;;;16.60;99.90;;;;;;4979501;28;20176;-77
2022/06/30 04:33:08;;;;;;;6.47;5.87;;;16.80;99.90;;;;;;4979873;28;20469;-77
2022/06/30 04:35:35;;;;;;;8.80;5.90;;;16.80;99.90;;;;;;4979671;28;20477;-77
2022/06/30 04:38:01;;;;;;;8.10;6.03;;;16.90;99.90;;;;;;4979864;28;20418;-75
2022/06/30 04:43:11;;;;;;;7.60;6.27;;;17.10;99.90;;;;;;4979281;28;20183;-75
2022/06/30 04:45:36;;;;;;;7.70;7.00;;;17.20;99.90;;;;;;4980445;28;20419;-76
2022/06/30 04:48:02;;;;;;;9.53;6.40;;;17.30;99.90;;;;;;4980992;28;20670;-76
2022/06/30 04:50:29;;;;;;;7.37;5.93;;;17.50;99.90;;;;;;4980714;28;20195;-76
2022/06/30 04:52:54;;;;;;;6.50;6.00;;;17.60;99.90;;;;;;4978990;28;20669;-76
2022/06/30 04:55:20;;;;;;;10.10;6.07;;;17.70;99.90;;;;;;4978963;28;20439;-76
2022/06/30 04:57:45;;;;;;;7.57;5.83;;;17.90;99.90;;;;;;4974177;28;20180;-76
2022/06/30 05:00:11;;;;;;;7.47;6.30;;;18.00;99.90;;;;;;4975902;28;20294;-76
2022/06/30 05:02:37;;;;;;;8.00;6.03;;;18.20;99.90;;;;;;4974772;28;20263;-77
2022/06/30 05:05:03;;;;;;;8.03;6.20;;;19.40;99.90;;;;;;4976163;28;20928;-76
2022/06/30 05:07:28;;;;;;;9.67;6.20;;;21.70;99.90;;;;;;4976120;28;20187;-76
2022/06/30 05:09:54;;;;;;;6.53;4.97;;;24.40;99.90;;;;;;4976426;28;20466;-77
2022/06/30 05:12:19;;;;;;;6.40;5.50;;;26.60;99.90;;;;;;4976450;28;20271;-76
2022/06/30 05:14:45;;;;;;;7.17;5.10;;;28.10;99.90;;;;;;4977151;28;20195;-77
2022/06/30 05:17:11;;;;;;;5.77;4.90;;;29.20;99.90;;;;;;4977452;28;20645;-77
2022/06/30 05:19:37;;;;;;;5.27;4.97;;;30.30;99.90;;;;;;4977790;28;20168;-77
2022/06/30 05:22:03;;;;;;;8.10;4.50;;;30.50;99.90;;;;;;4977124;28;21010;-77
2022/06/30 05:27:13;;;;;;;6.77;4.90;;;31.40;99.90;;;;;;4976501;28;20200;-77
2022/06/30 05:29:38;;;;;;;5.27;4.87;;;31.10;99.90;;;;;;4975792;28;20423;-77
2022/06/30 05:32:04;;;;;;;5.60;5.10;;;31.60;99.90;;;;;;4975305;28;20642;-77
2022/06/30 05:34:30;;;;;;;4.73;4.43;;;31.30;99.90;;;;;;4975447;28;20232;-77
2022/06/30 05:36:56;;;;;;;6.37;5.47;;;31.60;99.90;;;;;;4975674;28;20419;-77
2022/06/30 05:39:21;;;;;;;5.93;5.10;;;32.00;99.90;;;;;;4975397;28;20258;-77
2022/06/30 05:41:47;;;;;;;11.17;5.53;;;31.60;99.90;;;;;;4974814;28;20219;-77
2022/06/30 05:44:12;;;;;;;5.50;4.80;;;30.80;99.90;;;;;;4975457;28;20173;-75
2022/06/30 05:46:38;;;;;;;9.03;5.47;;;30.10;99.90;;;;;;4975565;28;20203;-76
2022/06/30 05:49:04;;;;;;;10.20;5.77;;;29.50;99.90;;;;;;4975288;28;20231;-77
2022/06/30 05:51:30;;;;;;;6.43;5.80;;;29.10;99.90;;;;;;4975212;28;20192;-76
2022/06/30 05:53:55;;;;;;;8.07;6.07;;;28.60;99.90;;;;;;4975094;28;20419;-76
2022/06/30 05:56:21;;;;;;;6.70;5.97;;;28.30;99.90;;;;;;4975092;28;20183;-76
2022/06/30 05:58:46;;;;;;;5.73;5.23;;;28.70;99.90;;;;;;4975025;28;20189;-77
2022/06/30 06:01:12;;;;;;;5.73;5.37;;;28.40;99.90;;;;;;4975044;28;20235;-77
2022/06/30 06:03:37;;;;;;;7.50;5.27;;;28.30;99.90;;;;;;4975012;28;20672;-76
2022/06/30 06:06:03;;;;;;;12.43;6.60;;;28.10;99.90;;;;;;4975073;28;20720;-76
2022/06/30 06:08:29;;;;;;;6.23;5.63;;;28.20;99.90;;;;;;4974829;28;20172;-77
2022/06/30 06:10:54;;;;;;;6.77;5.47;;;28.00;99.90;;;;;;4974697;28;20238;-77
2022/06/30 06:13:20;;;;;;;8.00;6.33;;;27.90;99.90;;;;;;4974517;28;20176;-77
2022/06/30 06:15:45;;;;;;;6.80;6.13;;;28.20;99.90;;;;;;4974807;28;20557;-77
2022/06/30 06:18:11;;;;;;;6.10;5.60;;;28.30;99.90;;;;;;4975596;28;20183;-77
2022/06/30 06:20:37;;;;;;;6.30;5.40;;;28.30;99.90;;;;;;4976988;28;20202;-77
2022/06/30 06:23:02;;;;;;;10.40;7.50;;;28.30;99.90;;;;;;4974125;28;20172;-77
2022/06/30 06:25:28;;;;;;;6.60;5.80;;;28.50;99.90;;;;;;4974708;28;20172;-75
2022/06/30 06:30:38;;;;;;;10.77;6.57;;;28.40;99.90;;;;;;4974522;28;20231;-74
2022/06/30 06:33:04;;;;;;;9.67;5.20;;;28.30;99.90;;;;;;4973977;28;20439;-75
2022/06/30 06:35:29;;;;;;;7.63;5.63;;;28.40;99.90;;;;;;4974699;28;20226;-76
2022/06/30 06:37:55;;;;;;;12.87;6.80;;;28.50;99.90;;;;;;4973867;28;20426;-76
2022/06/30 06:40:20;;;;;;;10.57;6.00;;;28.40;99.90;;;;;;4974185;28;20196;-76
2022/06/30 06:42:46;;;;;;;8.23;6.37;;;28.40;99.90;;;;;;4973862;28;20303;-76
2022/06/30 06:45:11;;;;;;;6.30;5.60;;;28.70;99.90;;;;;;4972885;28;20177;-76
2022/06/30 06:47:37;;;;;;;7.83;6.57;;;28.80;99.90;;;;;;4974156;28;20180;-76
2022/06/30 06:50:03;;;;;;;11.90;5.97;;;28.80;99.90;;;;;;4974200;28;20973;-77
2022/06/30 06:52:29;;;;;;;7.50;6.80;;;29.00;99.90;;;;;;4973873;28;20199;-77
2022/06/30 06:54:54;;;;;;;10.63;7.10;;;29.00;99.90;;;;;;4973779;28;20924;-75
2022/06/30 06:57:20;;;;;;;7.93;6.30;;;28.80;99.90;;;;;;4974198;28;20180;-77
2022/06/30 06:59:45;;;;;;;6.70;6.20;;;28.90;99.90;;;;;;4973823;28;20604;-76
2022/06/30 07:02:11;;;;;;;8.80;6.60;;;28.90;99.90;;;;;;4973633;28;20243;-76
2022/06/30 07:04:37;;;;;;;9.97;5.83;;;29.20;99.90;;;;;;4974184;28;20214;-75
2022/06/30 07:07:02;;;;;;;12.03;7.10;;;29.50;99.90;;;;;;4974149;28;20175;-77
2022/06/30 07:09:28;;;;;;;12.30;6.20;;;29.80;99.90;;;;;;4972936;28;20179;-77
2022/06/30 07:11:54;;;;;;;11.73;6.37;;;29.80;99.90;;;;;;4973688;28;20295;-76
2022/06/30 07:14:19;;;;;;;9.23;6.17;;;29.90;99.90;;;;;;4974059;28;20275;-77
2022/06/30 07:16:45;;;;;;;7.60;5.70;;;30.20;99.90;;;;;;4973711;28;20675;-77
2022/06/30 07:19:11;;;;;;;7.87;5.73;;;30.40;99.90;;;;;;4972909;28;20183;-77
2022/06/30 07:21:36;;;;;;;10.10;5.80;;;30.50;99.90;;;;;;4973531;28;20200;-77
2022/06/30 07:24:02;;;;;;;8.00;5.70;;;30.70;99.90;;;;;;4973375;28;20180;-75
2022/06/30 07:26:27;;;;;;;7.77;6.27;;;30.80;99.90;;;;;;4973350;28;20183;-75
2022/06/30 07:28:53;;;;;;;6.00;5.50;;;30.60;99.90;;;;;;4973388;28;20184;-75
2022/06/30 07:31:20;;;;;;;6.77;6.00;;;30.70;99.90;;;;;;4973128;28;20584;-75
2022/06/30 07:33:46;;;;;;;6.93;5.73;;;31.00;99.90;;;;;;4972448;28;20171;-74
2022/06/30 07:36:12;;;;;;;16.10;5.73;;;31.10;99.90;;;;;;4973590;28;20415;-75
2022/06/30 07:38:40;;;;;;;11.60;5.93;;;30.90;99.90;;;;;;4973522;28;20207;-74
2022/06/30 07:41:05;;;;;;;8.17;5.40;;;31.00;99.90;;;;;;4973150;28;20467;-75
2022/06/30 07:43:31;;;;;;;9.93;6.20;;;31.40;99.90;;;;;;4973546;28;20423;-74
2022/06/30 07:45:56;;;;;;;10.03;6.10;;;31.70;99.90;;;;;;4973660;28;20180;-75
2022/06/30 07:48:22;;;;;;;10.40;5.93;;;31.80;99.90;;;;;;4973202;28;20243;-75
2022/06/30 07:50:47;;;;;;;6.20;5.70;;;32.00;99.90;;;;;;4972945;28;20648;-76
2022/06/30 07:53:13;;;;;;;6.17;5.67;;;32.20;99.90;;;;;;4973365;28;20612;-75
2022/06/30 07:55:38;;;;;;;9.90;5.53;;;32.10;99.90;;;;;;4973464;28;20187;-75
2022/06/30 07:58:04;;;;;;;9.23;6.00;;;32.00;99.90;;;;;;4973097;28;20184;-77
2022/06/30 08:00:29;;;;;;;6.07;5.47;;;32.10;99.90;;;;;;4973471;28;20200;-76
2022/06/30 08:02:55;;;;;;;9.60;6.77;;;31.50;99.90;;;;;;4972985;28;20576;-76
2022/06/30 08:05:20;;;;;;;8.10;5.13;;;31.30;99.90;;;;;;4973349;28;20172;-76
2022/06/30 08:07:46;;;;;;;6.73;4.60;;;31.10;99.90;;;;;;4973141;28;20172;-75
2022/06/30 08:10:11;;;;;;;5.83;4.77;;;31.30;99.90;;;;;;4971833;28;20187;-74
2022/06/30 08:12:37;;;;;;;7.53;5.17;;;31.30;99.90;;;;;;4973037;28;20676;-76
2022/06/30 08:15:04;;;;;;;6.87;5.13;;;31.70;99.90;;;;;;4972981;28;20176;-76
2022/06/30 08:17:31;;;;;;;6.33;4.40;;;32.10;99.90;;;;;;4975083;28;20258;-75
2022/06/30 08:19:57;;;;;;;5.83;4.13;;;32.20;99.90;;;;;;4974989;28;20489;-76
2022/06/30 08:22:23;;;;;;;5.47;4.60;;;32.20;99.90;;;;;;4973246;28;20447;-75
2022/06/30 08:24:49;;;;;;;6.10;4.63;;;32.40;99.90;;;;;;4973195;28;20776;-75
2022/06/30 08:27:14;;;;;;;8.90;5.70;;;32.40;99.90;;;;;;4973342;28;20740;-76
2022/06/30 08:29:40;;;;;;;5.40;4.77;;;32.10;99.90;;;;;;4973117;28;20176;-76
2022/06/30 08:32:06;;;;;;;5.53;4.97;;;32.10;99.90;;;;;;4974431;28;20217;-74
2022/06/30 08:34:32;;;;;;;7.10;4.33;;;32.60;99.90;;;;;;4976794;28;20602;-76
2022/06/30 08:36:57;;;;;;;5.53;5.13;;;32.90;99.90;;;;;;4976636;28;20415;-74
2022/06/30 08:42:09;;;;;;;7.30;5.10;;;33.30;99.90;;;;;;4976257;28;20592;-76
2022/06/30 08:44:36;;;;;;;5.27;4.50;;;33.40;99.90;;;;;;4976326;28;20469;-76
2022/06/30 08:47:03;;;;;;;5.17;4.77;;;33.40;99.90;;;;;;4976415;28;20469;-76
2022/06/30 08:49:30;;;;;;;6.40;4.00;;;33.40;99.90;;;;;;4976257;28;20411;-74
2022/06/30 08:51:57;;;;;;;5.57;3.97;;;33.10;99.90;;;;;;4975703;28;20497;-75
2022/06/30 08:54:25;;;;;;;4.30;3.90;;;33.60;99.90;;;;;;4976368;28;20443;-75
2022/06/30 08:56:53;;;;;;;6.20;4.33;;;33.90;99.90;;;;;;4976108;28;20790;-76
2022/06/30 08:59:20;;;;;;;4.33;3.93;;;33.90;99.90;;;;;;4975972;28;20459;-76
2022/06/30 09:01:46;;;;;;;4.60;3.80;;;33.90;99.90;;;;;;4976005;28;20466;-75
2022/06/30 09:04:12;;;;;;;12.23;4.23;;;33.80;99.90;;;;;;4976113;28;20416;-74
2022/06/30 09:06:38;;;;;;;12.07;4.60;;;34.20;99.90;;;;;;4974790;28;20180;-75
2022/06/30 09:09:07;;;;;;;5.13;4.63;;;34.40;99.90;;;;;;4975791;28;20404;-76
2022/06/30 09:11:49;;;;;;;4.93;4.53;;;34.10;99.90;;;;;;4975691;28;20799;-76
2022/06/30 09:14:39;;;;;;;4.53;3.87;;;34.30;99.90;;;;;;4975887;28;20510;-76
2022/06/30 09:17:16;;;;;;;9.10;4.10;;;34.70;99.90;;;;;;4975694;28;20923;-76
2022/06/30 09:20:13;;;;;;;5.77;4.07;;;34.90;99.90;;;;;;4975582;28;20430;-76
2022/06/30 09:22:40;;;;;;;3.70;3.40;;;35.10;99.90;;;;;;4967553;28;20447;-76
2022/06/30 09:25:10;;;;;;;7.20;3.77;;;35.20;99.90;;;;;;4975221;28;20411;-76
2022/06/30 09:27:40;;;;;;;4.30;3.43;;;35.30;99.90;;;;;;4975410;28;20410;-76
2022/06/30 09:30:09;;;;;;;4.27;2.97;;;35.20;99.90;;;;;;4974217;28;20415;-76
2022/06/30 09:32:46;;;;;;;6.43;2.90;;;34.90;99.90;;;;;;4975422;28;20814;-75
2022/06/30 09:35:13;;;;;;;4.00;3.23;;;34.90;99.90;;;;;;4975301;28;20423;-74
2022/06/30 09:37:38;;;;;;;4.73;2.67;;;35.20;99.90;;;;;;4975268;28;20435;-76
2022/06/30 09:40:06;;;;;;;4.90;3.10;;;35.10;99.90;;;;;;4974096;28;20498;-77
2022/06/30 09:42:39;;;;;;;5.03;3.40;;;34.60;99.90;;;;;;4974705;28;20572;-76
2022/06/30 09:45:07;;;;;;;7.07;3.73;;;34.70;99.90;;;;;;4975326;28;20411;-76
2022/06/30 09:47:33;;;;;;;3.70;3.40;;;34.50;99.90;;;;;;4975150;28;20459;-76
2022/06/30 09:50:07;;;;;;;6.93;3.93;;;34.40;99.90;;;;;;4975067;28;20804;-76
2022/06/30 09:52:33;;;;;;;4.53;3.37;;;34.60;99.90;;;;;;4973439;28;20469;-77
2022/06/30 09:55:00;;;;;;;5.73;3.43;;;34.50;99.90;;;;;;4974754;28;20407;-77
2022/06/30 09:57:28;;;;;;;7.40;3.10;;;34.50;99.90;;;;;;4974945;28;20412;-76
2022/06/30 10:00:03;;;;;;;3.80;2.73;;;34.50;99.90;;;;;;4974903;28;20490;-76
2022/06/30 10:02:46;;;;;;;4.07;3.60;;;34.50;99.90;;;;;;4974689;28;20438;-76
2022/06/30 10:05:14;;;;;;;7.30;2.70;;;34.50;99.90;;;;;;4974935;28;20411;-76
2022/06/30 10:07:40;;;;;;;3.90;3.10;;;34.50;99.90;;;;;;4975101;28;20400;-77
2022/06/30 10:10:09;;;;;;;5.50;2.80;;;34.40;99.70;;;;;;4974645;28;20940;-76
2022/06/30 10:12:35;;;;;;;5.00;3.33;;;34.30;99.90;;;;;;4974886;28;20196;-76
2022/06/30 10:15:01;;;;;;;5.57;3.23;;;33.60;99.90;;;;;;4974662;28;20852;-77
2022/06/30 10:17:32;;;;;;;3.60;3.30;;;32.80;99.90;;;;;;4976024;28;20728;-76
2022/06/30 10:19:58;;;;;;;5.53;3.37;;;32.20;99.90;;;;;;4975572;28;20187;-77
2022/06/30 10:22:25;;;;;;;4.10;2.90;;;32.50;99.90;;;;;;4974511;28;20878;-77
2022/06/30 10:24:52;;;;;;;4.20;2.80;;;33.30;99.90;;;;;;4974707;28;20203;-77
2022/06/30 10:27:20;;;;;;;3.50;2.90;;;34.10;99.90;;;;;;4975006;28;20411;-76
2022/06/30 10:30:05;;;;;;;4.53;3.43;;;34.50;98.90;;;;;;4973036;28;20464;-75
2022/06/30 10:32:56;;;;;;;4.50;4.23;;;34.40;99.90;;;;;;4974317;28;20446;-77
2022/06/30 10:35:53;;;;;;;6.73;4.13;;;34.60;99.00;;;;;;4974348;28;20404;-76
2022/06/30 10:38:37;;;;;;;5.00;3.93;;;34.50;99.90;;;;;;4972829;28;20427;-76
2022/06/30 10:41:13;;;;;;;5.20;4.40;;;35.10;99.40;;;;;;4973847;28;20466;-77
2022/06/30 10:44:03;;;;;;;4.37;3.47;;;35.30;98.50;;;;;;4974240;28;20424;-76
2022/06/30 10:46:56;;;;;;;4.97;3.07;;;34.80;97.90;;;;;;4974213;28;20924;-76
2022/06/30 10:49:25;;;;;;;4.40;3.60;;;34.90;98.20;;;;;;4974009;28;20403;-77
2022/06/30 10:51:56;;;;;;;3.67;3.00;;;34.90;98.00;;;;;;4973623;28;20498;-76
2022/06/30 10:54:32;;;;;;;3.50;3.30;;;34.70;98.40;;;;;;4973162;28;20406;-77
2022/06/30 10:56:59;;;;;;;3.20;2.87;;;34.60;97.00;;;;;;4973954;28;20470;-76
2022/06/30 10:59:29;;;;;;;5.83;3.10;;;34.40;96.80;;;;;;4973867;28;20415;-77
2022/06/30 11:02:15;;;;;;;3.27;2.97;;;34.50;97.20;;;;;;4973468;28;20465;-78
2022/06/30 11:04:44;;;;;;;3.40;3.10;;;34.40;97.40;;;;;;4973842;28;20416;-77
2022/06/30 11:07:14;;;;;;;5.90;3.43;;;34.80;99.70;;;;;;4974046;28;20423;-77
2022/06/30 11:09:54;;;;;;;3.50;3.20;;;34.60;98.00;;;;;;4973857;28;20411;-77
2022/06/30 11:12:41;;;;;;;4.83;3.60;;;34.30;98.50;;;;;;4973504;28;20439;-77
2022/06/30 11:15:07;;;;;;;5.97;3.83;;;34.30;97.40;;;;;;4972274;28;20467;-76
2022/06/30 11:17:37;;;;;;;5.53;3.20;;;34.30;98.60;;;;;;4973687;28;20939;-77
2022/06/30 11:20:13;;;;;;;8.30;3.70;;;34.30;97.30;;;;;;4973428;28;20208;-77
2022/06/30 11:22:40;;;;;;;4.97;3.30;;;34.30;97.50;;;;;;4973473;28;20832;-75
2022/06/30 11:25:08;;;;;;;6.30;2.80;;;34.50;97.80;;;;;;4973161;28;20408;-74
2022/06/30 11:27:36;;;;;;;4.03;3.10;;;34.00;96.90;;;;;;4973626;28;20507;-76
2022/06/30 11:30:09;;;;;;;4.80;3.23;;;33.90;96.90;;;;;;4973382;28;20474;-76
2022/06/30 11:32:35;;;;;;;3.13;3.03;;;33.40;96.90;;;;;;4973354;28;20461;-76
2022/06/30 11:35:02;;;;;;;6.33;4.00;;;33.00;96.80;;;;;;4972900;28;20421;-77
2022/06/30 11:37:30;;;;;;;4.47;3.40;;;33.30;98.50;;;;;;4973593;28;20412;-76
2022/06/30 11:40:00;;;;;;;4.90;3.80;;;33.60;99.40;;;;;;4973131;28;20423;-75
2022/06/30 11:42:27;;;;;;;5.50;3.27;;;34.10;99.30;;;;;;4973154;28;20444;-77
2022/06/30 11:44:52;;;;;;;3.10;2.90;;;34.40;98.40;;;;;;4973126;28;20427;-77
2022/06/30 11:47:21;;;;;;;2.90;2.70;;;34.20;96.20;;;;;;4973614;28;20746;-77
2022/06/30 11:49:49;;;;;;;4.93;3.83;;;33.90;94.50;;;;;;4973298;28;20184;-76
2022/06/30 11:52:31;;;;;;;3.20;3.00;;;33.60;95.90;;;;;;4972819;28;20431;-76
2022/06/30 11:55:00;;;;;;;3.63;3.33;;;33.20;95.50;;;;;;4973031;28;20407;-76
2022/06/30 11:57:35;;;;;;;6.63;3.60;;;32.90;96.00;;;;;;4973152;28;20419;-75
2022/06/30 12:00:09;;;;;;;3.23;2.93;;;33.00;97.80;;;;;;4973124;28;20414;-76
2022/06/30 12:02:36;;;;;;;6.57;3.30;;;33.30;96.80;;;;;;4972581;28;20473;-76
2022/06/30 12:05:04;;;;;;;4.30;3.57;;;33.20;97.00;;;;;;4973116;28;20400;-76
2022/06/30 12:07:32;;;;;;;3.73;3.20;;;33.00;96.30;;;;;;4976707;28;20403;-75
2022/06/30 12:09:58;;;;;;;5.90;2.93;;;33.10;98.20;;;;;;4976569;28;20399;-76
2022/06/30 12:12:27;;;;;;;4.50;3.20;;;33.40;96.70;;;;;;4976664;28;20998;-76
2022/06/30 12:15:00;;;;;;;5.43;3.70;;;33.30;97.10;;;;;;4975757;28;20419;-76
2022/06/30 12:17:35;;;;;;;5.73;3.67;;;33.40;97.10;;;;;;4977640;28;20788;-76
2022/06/30 12:20:02;;;;;;;3.40;3.20;;;33.10;95.80;;;;;;4978587;28;20413;-75
2022/06/30 12:22:28;;;;;;;4.70;3.83;;;33.00;96.70;;;;;;4976366;28;20443;-77
2022/06/30 12:24:54;;;;;;;4.73;3.63;;;32.80;96.60;;;;;;4976351;28;20782;-76
2022/06/30 12:27:28;;;;;;;4.53;3.53;;;32.90;97.80;;;;;;4976649;28;20415;-74
2022/06/30 12:30:06;;;;;;;3.90;3.60;;;32.70;98.20;;;;;;4976471;28;20179;-76
2022/06/30 12:32:32;;;;;;;4.23;3.83;;;32.40;97.80;;;;;;4976269;28;20509;-76
2022/06/30 12:35:00;;;;;;;3.43;3.13;;;32.20;97.40;;;;;;4976337;28;20420;-75
2022/06/30 12:37:32;;;;;;;4.23;3.40;;;32.20;97.90;;;;;;4976409;28;20814;-76
2022/06/30 12:40:01;;;;;;;4.27;3.83;;;31.90;96.80;;;;;;4976106;28;20995;-77
2022/06/30 12:42:37;;;;;;;4.00;3.47;;;31.60;97.60;;;;;;4974689;28;20510;-76
2022/06/30 12:45:03;;;;;;;4.03;3.73;;;31.40;99.80;;;;;;4976224;28;20881;-76
2022/06/30 12:47:30;;;;;;;4.23;3.23;;;31.30;98.00;;;;;;4975305;28;20423;-76
2022/06/30 12:49:55;;;;;;;4.00;3.20;;;31.40;98.60;;;;;;4976095;28;20290;-76
2022/06/30 12:52:22;;;;;;;4.50;3.67;;;31.70;98.90;;;;;;4975944;28;20443;-76
2022/06/30 12:54:56;;;;;;;3.97;3.23;;;31.90;97.80;;;;;;4975897;28;20275;-74
2022/06/30 12:57:25;;;;;;;4.07;3.40;;;31.90;98.60;;;;;;4976073;28;20507;-76
2022/06/30 12:59:56;;;;;;;3.90;3.00;;;32.10;97.60;;;;;;4975818;28;20514;-74
2022/06/30 13:02:39;;;;;;;5.77;3.20;;;32.30;97.70;;;;;;4974091;28;20499;-74
2022/06/30 13:05:10;;;;;;;3.60;3.30;;;32.40;97.50;;;;;;4974800;28;20442;-75
2022/06/30 13:07:36;;;;;;;4.27;2.97;;;32.30;98.40;;;;;;4976146;28;20418;-73
2022/06/30 13:10:02;;;;;;;4.10;3.17;;;32.30;98.60;;;;;;4974498;28;20435;-76
2022/06/30 13:12:28;;;;;;;3.10;2.83;;;32.40;97.70;;;;;;4975530;28;20439;-76
2022/06/30 13:14:53;;;;;;;3.40;3.20;;;32.50;98.00;;;;;;4975920;28;20422;-75
2022/06/30 13:17:19;;;;;;;3.50;3.00;;;32.40;98.50;;;;;;4975240;28;20184;-76
2022/06/30 13:19:45;;;;;;;2.87;2.60;;;32.40;97.70;;;;;;4975749;28;20176;-75
2022/06/30 13:22:11;;;;;;;2.93;2.63;;;32.20;97.90;;;;;;4974292;28;20467;-76
2022/06/30 13:24:36;;;;;;;4.63;3.33;;;32.10;96.80;;;;;;4975853;28;20183;-75
2022/06/30 13:27:03;;;;;;;3.47;3.00;;;31.90;96.50;;;;;;4976018;28;20249;-76
2022/06/30 13:29:30;;;;;;;3.13;3.03;;;31.80;97.00;;;;;;4976012;28;20198;-75
2022/06/30 13:31:56;;;;;;;3.40;3.13;;;31.80;98.20;;;;;;4975253;28;20876;-76
2022/06/30 13:34:22;;;;;;;6.27;4.10;;;31.80;98.20;;;;;;4975367;28;20474;-75
2022/06/30 13:36:47;;;;;;;3.37;3.00;;;31.70;98.40;;;;;;4974041;28;20190;-75
2022/06/30 13:39:14;;;;;;;5.77;4.10;;;31.60;98.30;;;;;;4975433;28;20466;-75
2022/06/30 13:41:40;;;;;;;3.30;3.10;;;31.70;98.20;;;;;;4975187;28;20266;-76
2022/06/30 13:44:06;;;;;;;4.73;3.30;;;31.70;97.70;;;;;;4975682;28;20819;-76
2022/06/30 13:46:33;;;;;;;6.67;3.50;;;31.90;99.30;;;;;;4975498;28;20506;-76
2022/06/30 13:48:59;;;;;;;5.97;3.50;;;32.10;98.70;;;;;;4975101;28;20420;-77
2022/06/30 13:51:25;;;;;;;7.83;3.50;;;32.20;98.00;;;;;;4975138;28;20436;-75
2022/06/30 13:53:51;;;;;;;8.83;7.63;;;32.20;98.50;;;;;;4974873;28;20496;-75
2022/06/30 13:56:16;;;;;;;6.10;5.20;;;32.10;99.70;;;;;;4975143;28;20187;-76
2022/06/30 13:58:42;;;;;;;4.87;4.47;;;32.00;99.00;;;;;;4975012;28;20188;-76
2022/06/30 14:01:09;;;;;;;5.20;4.33;;;32.00;99.10;;;;;;4974372;28;20719;-76
2022/06/30 14:03:35;;;;;;;6.40;3.70;;;31.90;99.90;;;;;;4975225;28;20180;-76
2022/06/30 14:06:02;;;;;;;5.13;3.27;;;31.70;98.50;;;;;;4974712;28;20514;-76
2022/06/30 14:08:29;;;;;;;5.23;3.33;;;31.50;99.00;;;;;;4975004;28;20424;-76
2022/06/30 14:10:54;;;;;;;3.57;3.37;;;31.40;99.00;;;;;;4974479;28;20455;-73
2022/06/30 14:13:20;;;;;;;3.60;3.30;;;31.30;99.50;;;;;;4974732;28;20451;-76
2022/06/30 14:15:52;;;;;;;4.37;3.97;;;31.30;99.90;;;;;;4974486;28;20188;-74
2022/06/30 14:18:18;;;;;;;4.30;3.87;;;31.30;99.90;;;;;;4974699;28;20211;-77
2022/06/30 14:20:44;;;;;;;3.83;3.53;;;31.10;99.90;;;;;;4976059;28;20553;-76
2022/06/30 14:23:11;;;;;;;4.93;3.70;;;31.00;99.90;;;;;;4973887;28;20609;-77
2022/06/30 14:25:36;;;;;;;7.30;3.67;;;30.90;99.90;;;;;;4974670;28;20426;-76
2022/06/30 14:28:03;;;;;;;7.40;3.83;;;30.90;99.90;;;;;;4974601;28;20971;-76
2022/06/30 14:30:30;;;;;;;6.90;3.83;;;30.80;99.90;;;;;;4973341;28;20183;-77